sensor_id;sensor_type;location;lat;lon;timestamp;temperature;humidity
52889;DHT22;41413;52.770;6.892;2022-11-20T00:01:23;-2.10;99.90
52889;DHT22;41413;52.770;6.892;2022-11-20T00:03:51;-2.20;99.90
52889;DHT22;41413;52.770;6.892;2022-11-20T00:06:19;-2.10;99.90
52889;DHT22;41413;52.770;6.892;2022-11-20T00:08:47;-1.90;99.90
52889;DHT22;41413;52.770;6.892;2022-11-20T00:11:19;-1.90;99.90
52889;DHT22;41413;52.770;6.892;2022-11-20T00:13:48;-1.80;99.90
52889;DHT22;41413;52.770;6.892;2022-11-20T00:16:17;-1.70;99.90
52889;DHT22;41413;52.770;6.892;2022-11-20T00:18:44;-1.60;99.90
52889;DHT22;41413;52.770;6.892;2022-11-20T00:21:22;-1.50;99.90
52889;DHT22;41413;52.770;6.892;2022-11-20T00:23:49;-1.40;99.90
52889;DHT22;41413;52.770;6.892;2022-11-20T00:26:18;-1.40;99.90
52889;DHT22;41413;52.770;6.892;2022-11-20T00:28:49;-1.30;99.90
52889;DHT22;41413;52.770;6.892;2022-11-20T00:31:17;-1.30;99.90
52889;DHT22;41413;52.770;6.892;2022-11-20T00:33:44;-1.30;99.90
52889;DHT22;41413;52.770;6.892;2022-11-20T00:36:16;-1.20;99.90
52889;DHT22;41413;52.770;6.892;2022-11-20T00:38:44;-1.20;99.90
52889;DHT22;41413;52.770;6.892;2022-11-20T00:41:14;-1.20;99.90
52889;DHT22;41413;52.770;6.892;2022-11-20T00:43:41;-1.20;99.90
52889;DHT22;41413;52.770;6.892;2022-11-20T00:46:13;-1.10;99.90
52889;DHT22;41413;52.770;6.892;2022-11-20T00:48:40;-1.10;99.90
52889;DHT22;41413;52.770;6.892;2022-11-20T00:51:06;-1.20;99.90
52889;DHT22;41413;52.770;6.892;2022-11-20T00:53:33;-1.10;99.90
52889;DHT22;41413;52.770;6.892;2022-11-20T00:56:09;-1.00;99.90
52889;DHT22;41413;52.770;6.892;2022-11-20T00:58:38;-1.10;99.90
52889;DHT22;41413;52.770;6.892;2022-11-20T01:01:15;-1.00;99.90
52889;DHT22;41413;52.770;6.892;2022-11-20T01:03:44;-1.10;99.90
52889;DHT22;41413;52.770;6.892;2022-11-20T01:06:25;-1.10;99.90
52889;DHT22;41413;52.770;6.892;2022-11-20T01:08:55;-1.00;99.90
52889;DHT22;41413;52.770;6.892;2022-11-20T01:11:27;-1.00;99.90
52889;DHT22;41413;52.770;6.892;2022-11-20T01:13:56;-1.00;99.90
52889;DHT22;41413;52.770;6.892;2022-11-20T01:16:43;-0.90;99.90
52889;DHT22;41413;52.770;6.892;2022-11-20T01:19:15;-0.90;99.90
52889;DHT22;41413;52.770;6.892;2022-11-20T01:21:45;-1.10;99.90
52889;DHT22;41413;52.770;6.892;2022-11-20T01:24:14;-1.00;99.90
52889;DHT22;41413;52.770;6.892;2022-11-20T01:26:43;-1.00;99.90
52889;DHT22;41413;52.770;6.892;2022-11-20T01:29:17;-0.90;99.90
52889;DHT22;41413;52.770;6.892;2022-11-20T01:31:44;-0.90;99.90
52889;DHT22;41413;52.770;6.892;2022-11-20T01:34:17;-0.90;99.90
52889;DHT22;41413;52.770;6.892;2022-11-20T01:36:44;-0.90;99.90
52889;DHT22;41413;52.770;6.892;2022-11-20T01:39:17;-0.90;99.90
52889;DHT22;41413;52.770;6.892;2022-11-20T01:41:46;-0.80;99.90
52889;DHT22;41413;52.770;6.892;2022-11-20T01:45:00;-0.90;99.90
52889;DHT22;41413;52.770;6.892;2022-11-20T01:47:34;-0.90;99.90
52889;DHT22;41413;52.770;6.892;2022-11-20T01:50:24;-0.80;99.90
52889;DHT22;41413;52.770;6.892;2022-11-20T01:52:55;-0.80;99.90
52889;DHT22;41413;52.770;6.892;2022-11-20T01:55:34;-0.70;99.90
52889;DHT22;41413;52.770;6.892;2022-11-20T01:58:02;-0.80;99.90
52889;DHT22;41413;52.770;6.892;2022-11-20T02:00:30;-0.80;99.90
52889;DHT22;41413;52.770;6.892;2022-11-20T02:02:59;-0.80;99.90
52889;DHT22;41413;52.770;6.892;2022-11-20T02:08:05;-0.80;99.90
52889;DHT22;41413;52.770;6.892;2022-11-20T02:10:33;-0.80;99.90
52889;DHT22;41413;52.770;6.892;2022-11-20T02:13:00;-0.80;99.90
52889;DHT22;41413;52.770;6.892;2022-11-20T02:15:47;-0.70;99.90
52889;DHT22;41413;52.770;6.892;2022-11-20T02:18:16;-0.70;99.90
52889;DHT22;41413;52.770;6.892;2022-11-20T02:20:45;-0.80;99.90
52889;DHT22;41413;52.770;6.892;2022-11-20T02:23:18;-0.80;99.90
52889;DHT22;41413;52.770;6.892;2022-11-20T02:25:47;-0.80;99.90
52889;DHT22;41413;52.770;6.892;2022-11-20T02:28:14;-0.70;99.90
52889;DHT22;41413;52.770;6.892;2022-11-20T02:30:41;-0.70;99.90
52889;DHT22;41413;52.770;6.892;2022-11-20T02:33:08;-0.80;99.90
52889;DHT22;41413;52.770;6.892;2022-11-20T02:38:02;-0.60;99.90
52889;DHT22;41413;52.770;6.892;2022-11-20T02:40:29;-0.60;99.90
52889;DHT22;41413;52.770;6.892;2022-11-20T02:42:56;-0.60;99.90
52889;DHT22;41413;52.770;6.892;2022-11-20T02:45:24;-0.70;99.90
52889;DHT22;41413;52.770;6.892;2022-11-20T02:47:51;-0.70;99.90
52889;DHT22;41413;52.770;6.892;2022-11-20T02:50:18;-0.70;99.90
52889;DHT22;41413;52.770;6.892;2022-11-20T02:52:45;-0.60;99.90
52889;DHT22;41413;52.770;6.892;2022-11-20T02:55:11;-0.70;99.90
52889;DHT22;41413;52.770;6.892;2022-11-20T02:57:38;-0.70;99.90
52889;DHT22;41413;52.770;6.892;2022-11-20T03:00:05;-0.60;99.90
52889;DHT22;41413;52.770;6.892;2022-11-20T03:02:33;-0.60;99.90
52889;DHT22;41413;52.770;6.892;2022-11-20T03:04:59;-0.60;99.90
52889;DHT22;41413;52.770;6.892;2022-11-20T03:07:26;-0.70;99.90
52889;DHT22;41413;52.770;6.892;2022-11-20T03:09:53;-0.80;99.90
52889;DHT22;41413;52.770;6.892;2022-11-20T03:12:19;-0.70;99.90
52889;DHT22;41413;52.770;6.892;2022-11-20T03:14:46;-0.70;99.90
52889;DHT22;41413;52.770;6.892;2022-11-20T03:17:18;-0.60;99.90
52889;DHT22;41413;52.770;6.892;2022-11-20T03:19:45;-0.60;99.90
52889;DHT22;41413;52.770;6.892;2022-11-20T03:22:12;-0.60;99.90
52889;DHT22;41413;52.770;6.892;2022-11-20T03:24:38;-0.40;99.90
52889;DHT22;41413;52.770;6.892;2022-11-20T03:27:05;-0.60;99.90
52889;DHT22;41413;52.770;6.892;2022-11-20T03:29:32;-0.60;99.90
52889;DHT22;41413;52.770;6.892;2022-11-20T03:31:58;-0.60;99.90
52889;DHT22;41413;52.770;6.892;2022-11-20T03:34:25;-0.50;99.90
52889;DHT22;41413;52.770;6.892;2022-11-20T03:36:52;-0.50;99.90
52889;DHT22;41413;52.770;6.892;2022-11-20T03:39:18;-0.60;99.90
52889;DHT22;41413;52.770;6.892;2022-11-20T03:41:45;-0.50;99.90
52889;DHT22;41413;52.770;6.892;2022-11-20T03:44:12;-0.60;99.90
52889;DHT22;41413;52.770;6.892;2022-11-20T03:46:39;-0.70;99.90
52889;DHT22;41413;52.770;6.892;2022-11-20T03:49:06;-0.60;99.90
52889;DHT22;41413;52.770;6.892;2022-11-20T03:51:35;-0.50;99.90
52889;DHT22;41413;52.770;6.892;2022-11-20T03:54:06;-0.50;99.90
52889;DHT22;41413;52.770;6.892;2022-11-20T03:56:36;-0.50;99.90
52889;DHT22;41413;52.770;6.892;2022-11-20T03:59:04;-0.50;99.90
52889;DHT22;41413;52.770;6.892;2022-11-20T04:01:34;-0.40;99.90
52889;DHT22;41413;52.770;6.892;2022-11-20T04:04:02;-0.50;99.90
52889;DHT22;41413;52.770;6.892;2022-11-20T04:06:34;-0.60;99.90
52889;DHT22;41413;52.770;6.892;2022-11-20T04:09:01;-0.60;99.90
52889;DHT22;41413;52.770;6.892;2022-11-20T04:11:30;-0.60;99.90
52889;DHT22;41413;52.770;6.892;2022-11-20T04:14:03;-0.50;99.90
52889;DHT22;41413;52.770;6.892;2022-11-20T04:16:31;-0.50;99.90
52889;DHT22;41413;52.770;6.892;2022-11-20T04:18:59;-0.40;99.90
52889;DHT22;41413;52.770;6.892;2022-11-20T04:21:27;-0.40;99.90
52889;DHT22;41413;52.770;6.892;2022-11-20T04:23:55;-0.30;99.90
52889;DHT22;41413;52.770;6.892;2022-11-20T04:26:23;-0.30;99.90
52889;DHT22;41413;52.770;6.892;2022-11-20T04:28:51;-0.30;99.90
52889;DHT22;41413;52.770;6.892;2022-11-20T04:31:24;-0.40;99.90
52889;DHT22;41413;52.770;6.892;2022-11-20T04:33:51;-0.40;99.90
52889;DHT22;41413;52.770;6.892;2022-11-20T04:36:20;-0.40;99.90
52889;DHT22;41413;52.770;6.892;2022-11-20T04:38:51;-0.40;99.90
52889;DHT22;41413;52.770;6.892;2022-11-20T04:41:27;-0.30;99.90
52889;DHT22;41413;52.770;6.892;2022-11-20T04:43:57;-0.30;99.90
52889;DHT22;41413;52.770;6.892;2022-11-20T04:46:27;-0.30;99.90
52889;DHT22;41413;52.770;6.892;2022-11-20T04:48:54;-0.30;99.90
52889;DHT22;41413;52.770;6.892;2022-11-20T04:51:21;-0.30;99.90
52889;DHT22;41413;52.770;6.892;2022-11-20T04:53:48;-0.30;99.90
52889;DHT22;41413;52.770;6.892;2022-11-20T04:56:15;-0.30;99.90
52889;DHT22;41413;52.770;6.892;2022-11-20T04:58:42;-0.30;99.90
52889;DHT22;41413;52.770;6.892;2022-11-20T05:01:09;-0.40;99.90
52889;DHT22;41413;52.770;6.892;2022-11-20T05:03:36;-0.30;99.90
52889;DHT22;41413;52.770;6.892;2022-11-20T05:06:09;-0.30;99.90
52889;DHT22;41413;52.770;6.892;2022-11-20T05:08:36;-0.30;99.90
52889;DHT22;41413;52.770;6.892;2022-11-20T05:11:18;-0.30;99.90
52889;DHT22;41413;52.770;6.892;2022-11-20T05:13:45;-0.30;99.90
52889;DHT22;41413;52.770;6.892;2022-11-20T05:16:15;-0.40;99.90
52889;DHT22;41413;52.770;6.892;2022-11-20T05:18:42;-0.40;99.90
52889;DHT22;41413;52.770;6.892;2022-11-20T05:21:10;-0.30;99.90
52889;DHT22;41413;52.770;6.892;2022-11-20T05:23:37;-0.30;99.90
52889;DHT22;41413;52.770;6.892;2022-11-20T05:26:05;-0.40;99.90
52889;DHT22;41413;52.770;6.892;2022-11-20T05:28:33;-0.40;99.90
52889;DHT22;41413;52.770;6.892;2022-11-20T05:31:11;-0.40;99.90
52889;DHT22;41413;52.770;6.892;2022-11-20T05:33:42;-0.40;99.90
52889;DHT22;41413;52.770;6.892;2022-11-20T05:36:10;-0.40;99.90
52889;DHT22;41413;52.770;6.892;2022-11-20T05:38:38;-0.40;99.90
52889;DHT22;41413;52.770;6.892;2022-11-20T05:41:16;-0.50;99.90
52889;DHT22;41413;52.770;6.892;2022-11-20T05:43:45;0.50;99.90
52889;DHT22;41413;52.770;6.892;2022-11-20T05:46:13;-0.30;99.90
52889;DHT22;41413;52.770;6.892;2022-11-20T05:48:42;-0.30;99.90
52889;DHT22;41413;52.770;6.892;2022-11-20T05:51:10;-0.30;99.90
52889;DHT22;41413;52.770;6.892;2022-11-20T05:53:37;-0.30;99.90
52889;DHT22;41413;52.770;6.892;2022-11-20T05:56:14;-0.20;99.90
52889;DHT22;41413;52.770;6.892;2022-11-20T05:58:42;-0.30;99.90
52889;DHT22;41413;52.770;6.892;2022-11-20T06:01:12;-0.30;99.90
52889;DHT22;41413;52.770;6.892;2022-11-20T06:03:40;-0.20;99.90
52889;DHT22;41413;52.770;6.892;2022-11-20T06:06:08;-0.20;99.90
52889;DHT22;41413;52.770;6.892;2022-11-20T06:08:35;-0.20;99.90
52889;DHT22;41413;52.770;6.892;2022-11-20T06:11:07;-0.20;99.90
52889;DHT22;41413;52.770;6.892;2022-11-20T06:13:34;-0.30;99.90
52889;DHT22;41413;52.770;6.892;2022-11-20T06:16:07;-0.30;99.90
52889;DHT22;41413;52.770;6.892;2022-11-20T06:18:34;-0.30;99.90
52889;DHT22;41413;52.770;6.892;2022-11-20T06:21:12;-0.30;99.90
52889;DHT22;41413;52.770;6.892;2022-11-20T06:23:40;-0.30;99.90
52889;DHT22;41413;52.770;6.892;2022-11-20T06:26:09;-0.30;99.90
52889;DHT22;41413;52.770;6.892;2022-11-20T06:28:37;-0.20;99.90
52889;DHT22;41413;52.770;6.892;2022-11-20T06:31:05;-0.20;99.90
52889;DHT22;41413;52.770;6.892;2022-11-20T06:33:32;-0.20;99.90
52889;DHT22;41413;52.770;6.892;2022-11-20T06:36:00;-0.20;99.90
52889;DHT22;41413;52.770;6.892;2022-11-20T06:38:34;-0.30;99.90
52889;DHT22;41413;52.770;6.892;2022-11-20T06:41:01;-0.20;99.90
52889;DHT22;41413;52.770;6.892;2022-11-20T06:43:28;-0.30;99.90
52889;DHT22;41413;52.770;6.892;2022-11-20T06:45:56;-0.30;99.90
52889;DHT22;41413;52.770;6.892;2022-11-20T06:48:23;-0.30;99.90
52889;DHT22;41413;52.770;6.892;2022-11-20T06:50:50;-0.30;99.90
52889;DHT22;41413;52.770;6.892;2022-11-20T06:53:17;-0.30;99.90
52889;DHT22;41413;52.770;6.892;2022-11-20T06:55:45;-0.30;99.90
52889;DHT22;41413;52.770;6.892;2022-11-20T06:58:13;-0.30;99.90
52889;DHT22;41413;52.770;6.892;2022-11-20T07:00:40;-0.30;99.90
52889;DHT22;41413;52.770;6.892;2022-11-20T07:03:09;-0.30;99.90
52889;DHT22;41413;52.770;6.892;2022-11-20T07:05:37;-0.40;99.90
52889;DHT22;41413;52.770;6.892;2022-11-20T07:08:05;-0.30;99.90
52889;DHT22;41413;52.770;6.892;2022-11-20T07:10:32;-0.40;99.90
52889;DHT22;41413;52.770;6.892;2022-11-20T07:12:59;-0.40;99.90
52889;DHT22;41413;52.770;6.892;2022-11-20T07:15:26;-0.40;99.90
52889;DHT22;41413;52.770;6.892;2022-11-20T07:17:53;-0.40;99.90
52889;DHT22;41413;52.770;6.892;2022-11-20T07:20:19;-0.40;99.90
52889;DHT22;41413;52.770;6.892;2022-11-20T07:22:46;-0.30;99.90
52889;DHT22;41413;52.770;6.892;2022-11-20T07:25:12;-0.30;99.90
52889;DHT22;41413;52.770;6.892;2022-11-20T07:27:39;-0.30;99.90
52889;DHT22;41413;52.770;6.892;2022-11-20T07:30:06;-0.30;99.90
52889;DHT22;41413;52.770;6.892;2022-11-20T07:32:33;-0.30;99.90
52889;DHT22;41413;52.770;6.892;2022-11-20T07:35:00;-0.30;99.90
52889;DHT22;41413;52.770;6.892;2022-11-20T07:37:26;-0.30;99.90
52889;DHT22;41413;52.770;6.892;2022-11-20T07:39:53;-0.30;99.90
52889;DHT22;41413;52.770;6.892;2022-11-20T07:42:19;-0.30;99.90
52889;DHT22;41413;52.770;6.892;2022-11-20T07:44:46;-0.30;99.90
52889;DHT22;41413;52.770;6.892;2022-11-20T07:47:13;-0.30;99.90
52889;DHT22;41413;52.770;6.892;2022-11-20T07:49:39;-0.30;99.90
52889;DHT22;41413;52.770;6.892;2022-11-20T07:52:06;-0.30;99.90
52889;DHT22;41413;52.770;6.892;2022-11-20T07:54:33;-0.20;99.90
52889;DHT22;41413;52.770;6.892;2022-11-20T07:56:59;-0.20;99.90
52889;DHT22;41413;52.770;6.892;2022-11-20T07:59:26;-0.10;99.90
52889;DHT22;41413;52.770;6.892;2022-11-20T08:01:52;-0.10;99.90
52889;DHT22;41413;52.770;6.892;2022-11-20T08:04:19;-0.10;99.90
52889;DHT22;41413;52.770;6.892;2022-11-20T08:06:46;0.00;99.90
52889;DHT22;41413;52.770;6.892;2022-11-20T08:09:12;-0.10;99.90
52889;DHT22;41413;52.770;6.892;2022-11-20T08:11:39;-0.20;99.90
52889;DHT22;41413;52.770;6.892;2022-11-20T08:14:24;-0.20;99.90
52889;DHT22;41413;52.770;6.892;2022-11-20T08:16:51;-0.10;99.90
52889;DHT22;41413;52.770;6.892;2022-11-20T08:19:18;-0.10;99.90
52889;DHT22;41413;52.770;6.892;2022-11-20T08:21:45;-0.20;99.90
52889;DHT22;41413;52.770;6.892;2022-11-20T08:24:12;-0.20;99.90
52889;DHT22;41413;52.770;6.892;2022-11-20T08:26:39;-0.20;99.90
52889;DHT22;41413;52.770;6.892;2022-11-20T08:29:07;-0.10;99.90
52889;DHT22;41413;52.770;6.892;2022-11-20T08:31:33;-0.20;99.90
52889;DHT22;41413;52.770;6.892;2022-11-20T08:34:00;-0.10;99.90
52889;DHT22;41413;52.770;6.892;2022-11-20T08:36:33;-0.10;99.90
52889;DHT22;41413;52.770;6.892;2022-11-20T08:39:01;-0.10;99.90
52889;DHT22;41413;52.770;6.892;2022-11-20T08:41:29;0.10;99.90
52889;DHT22;41413;52.770;6.892;2022-11-20T08:44:02;0.10;99.90
52889;DHT22;41413;52.770;6.892;2022-11-20T08:46:38;0.20;99.90
52889;DHT22;41413;52.770;6.892;2022-11-20T08:49:07;0.20;99.90
52889;DHT22;41413;52.770;6.892;2022-11-20T08:51:35;0.20;99.90
52889;DHT22;41413;52.770;6.892;2022-11-20T08:54:02;0.20;99.90
52889;DHT22;41413;52.770;6.892;2022-11-20T08:56:29;0.30;99.90
52889;DHT22;41413;52.770;6.892;2022-11-20T08:58:56;0.30;99.90
52889;DHT22;41413;52.770;6.892;2022-11-20T09:01:43;0.20;99.90
52889;DHT22;41413;52.770;6.892;2022-11-20T09:04:10;0.30;99.90
52889;DHT22;41413;52.770;6.892;2022-11-20T09:06:38;0.40;99.90
52889;DHT22;41413;52.770;6.892;2022-11-20T09:09:04;0.40;99.90
52889;DHT22;41413;52.770;6.892;2022-11-20T09:11:33;0.40;99.90
52889;DHT22;41413;52.770;6.892;2022-11-20T09:14:00;0.40;99.90
52889;DHT22;41413;52.770;6.892;2022-11-20T09:16:29;0.40;99.90
52889;DHT22;41413;52.770;6.892;2022-11-20T09:18:55;0.50;99.90
52889;DHT22;41413;52.770;6.892;2022-11-20T09:21:42;0.50;99.90
52889;DHT22;41413;52.770;6.892;2022-11-20T09:24:08;0.50;99.90
52889;DHT22;41413;52.770;6.892;2022-11-20T09:26:35;0.50;99.90
52889;DHT22;41413;52.770;6.892;2022-11-20T09:29:02;0.60;99.90
52889;DHT22;41413;52.770;6.892;2022-11-20T09:31:29;0.60;99.90
52889;DHT22;41413;52.770;6.892;2022-11-20T09:33:55;0.60;99.90
52889;DHT22;41413;52.770;6.892;2022-11-20T09:36:22;0.60;99.90
52889;DHT22;41413;52.770;6.892;2022-11-20T09:38:49;0.60;99.90
52889;DHT22;41413;52.770;6.892;2022-11-20T09:41:54;0.70;99.90
52889;DHT22;41413;52.770;6.892;2022-11-20T09:47:02;0.80;99.90
52889;DHT22;41413;52.770;6.892;2022-11-20T09:55:21;0.90;99.90
52889;DHT22;41413;52.770;6.892;2022-11-20T09:57:51;1.00;99.90
52889;DHT22;41413;52.770;6.892;2022-11-20T10:00:19;1.10;99.90
52889;DHT22;41413;52.770;6.892;2022-11-20T10:03:03;1.20;99.90
52889;DHT22;41413;52.770;6.892;2022-11-20T10:05:47;1.50;99.90
52889;DHT22;41413;52.770;6.892;2022-11-20T10:09:03;1.50;99.90
52889;DHT22;41413;52.770;6.892;2022-11-20T10:16:51;2.10;99.90
52889;DHT22;41413;52.770;6.892;2022-11-20T10:19:32;2.20;99.90
52889;DHT22;41413;52.770;6.892;2022-11-20T10:24:56;2.50;99.90
52889;DHT22;41413;52.770;6.892;2022-11-20T10:30:12;3.30;99.90
52889;DHT22;41413;52.770;6.892;2022-11-20T10:32:48;3.40;99.90
52889;DHT22;41413;52.770;6.892;2022-11-20T10:35:19;3.60;99.90
52889;DHT22;41413;52.770;6.892;2022-11-20T10:37:51;3.50;99.90
52889;DHT22;41413;52.770;6.892;2022-11-20T10:40:37;3.50;99.90
52889;DHT22;41413;52.770;6.892;2022-11-20T10:43:14;3.60;99.90
52889;DHT22;41413;52.770;6.892;2022-11-20T10:48:17;3.80;99.90
52889;DHT22;41413;52.770;6.892;2022-11-20T10:51:03;3.80;99.90
52889;DHT22;41413;52.770;6.892;2022-11-20T10:53:55;3.80;99.90
52889;DHT22;41413;52.770;6.892;2022-11-20T10:56:39;3.90;99.90
52889;DHT22;41413;52.770;6.892;2022-11-20T11:02:18;4.10;99.90
52889;DHT22;41413;52.770;6.892;2022-11-20T11:04:49;3.70;99.90
52889;DHT22;41413;52.770;6.892;2022-11-20T11:07:23;3.60;99.90
52889;DHT22;41413;52.770;6.892;2022-11-20T11:09:55;3.40;99.90
52889;DHT22;41413;52.770;6.892;2022-11-20T11:12:25;3.30;99.90
52889;DHT22;41413;52.770;6.892;2022-11-20T11:14:53;3.40;99.90
52889;DHT22;41413;52.770;6.892;2022-11-20T11:17:31;3.30;99.90
52889;DHT22;41413;52.770;6.892;2022-11-20T11:22:47;3.20;99.90
52889;DHT22;41413;52.770;6.892;2022-11-20T11:25:40;3.10;99.90
52889;DHT22;41413;52.770;6.892;2022-11-20T11:28:22;3.10;99.90
52889;DHT22;41413;52.770;6.892;2022-11-20T11:30:52;2.80;99.90
52889;DHT22;41413;52.770;6.892;2022-11-20T11:33:27;2.70;99.90
52889;DHT22;41413;52.770;6.892;2022-11-20T11:35:56;2.70;99.90
52889;DHT22;41413;52.770;6.892;2022-11-20T11:38:36;2.70;99.90
52889;DHT22;41413;52.770;6.892;2022-11-20T11:41:06;2.70;99.90
52889;DHT22;41413;52.770;6.892;2022-11-20T11:43:36;2.60;99.90
52889;DHT22;41413;52.770;6.892;2022-11-20T11:46:27;2.60;99.90
52889;DHT22;41413;52.770;6.892;2022-11-20T11:51:46;2.40;99.90
52889;DHT22;41413;52.770;6.892;2022-11-20T11:54:20;2.40;99.90
52889;DHT22;41413;52.770;6.892;2022-11-20T11:56:52;2.30;99.90
52889;DHT22;41413;52.770;6.892;2022-11-20T11:59:29;2.30;99.90
52889;DHT22;41413;52.770;6.892;2022-11-20T12:02:04;2.30;99.90
52889;DHT22;41413;52.770;6.892;2022-11-20T12:04:50;2.40;99.90
52889;DHT22;41413;52.770;6.892;2022-11-20T12:07:58;2.50;99.90
52889;DHT22;41413;52.770;6.892;2022-11-20T12:10:53;2.50;99.90
52889;DHT22;41413;52.770;6.892;2022-11-20T12:13:37;2.50;99.90
52889;DHT22;41413;52.770;6.892;2022-11-20T12:16:12;2.70;99.90
52889;DHT22;41413;52.770;6.892;2022-11-20T12:18:41;2.90;99.90
52889;DHT22;41413;52.770;6.892;2022-11-20T12:21:27;3.10;99.90
52889;DHT22;41413;52.770;6.892;2022-11-20T12:26:55;3.20;99.90
52889;DHT22;41413;52.770;6.892;2022-11-20T12:40:07;3.20;99.90
52889;DHT22;41413;52.770;6.892;2022-11-20T12:49:00;2.80;99.90
52889;DHT22;41413;52.770;6.892;2022-11-20T12:52:06;2.70;99.90
52889;DHT22;41413;52.770;6.892;2022-11-20T12:54:54;2.60;99.90
52889;DHT22;41413;52.770;6.892;2022-11-20T13:08:16;2.70;99.90
52889;DHT22;41413;52.770;6.892;2022-11-20T13:16:16;2.80;99.90
52889;DHT22;41413;52.770;6.892;2022-11-20T13:18:44;2.80;99.90
52889;DHT22;41413;52.770;6.892;2022-11-20T13:21:34;2.70;99.90
52889;DHT22;41413;52.770;6.892;2022-11-20T13:24:20;2.60;99.90
52889;DHT22;41413;52.770;6.892;2022-11-20T13:29:45;2.40;99.90
52889;DHT22;41413;52.770;6.892;2022-11-20T13:32:18;2.40;99.90
52889;DHT22;41413;52.770;6.892;2022-11-20T13:35:03;2.40;99.90
52889;DHT22;41413;52.770;6.892;2022-11-20T13:37:33;2.40;99.90
52889;DHT22;41413;52.770;6.892;2022-11-20T13:45:42;2.40;99.90
52889;DHT22;41413;52.770;6.892;2022-11-20T13:48:22;2.40;99.90
52889;DHT22;41413;52.770;6.892;2022-11-20T13:53:52;2.40;99.90
52889;DHT22;41413;52.770;6.892;2022-11-20T14:02:12;2.20;99.90
52889;DHT22;41413;52.770;6.892;2022-11-20T14:04:44;2.30;99.90
52889;DHT22;41413;52.770;6.892;2022-11-20T14:07:12;2.20;99.90
52889;DHT22;41413;52.770;6.892;2022-11-20T14:09:52;2.30;99.90
52889;DHT22;41413;52.770;6.892;2022-11-20T14:12:22;2.30;99.90
52889;DHT22;41413;52.770;6.892;2022-11-20T14:14:51;2.30;99.90
52889;DHT22;41413;52.770;6.892;2022-11-20T14:17:28;2.30;99.90
52889;DHT22;41413;52.770;6.892;2022-11-20T14:19:59;2.40;99.90
52889;DHT22;41413;52.770;6.892;2022-11-20T14:22:27;2.40;99.90
52889;DHT22;41413;52.770;6.892;2022-11-20T14:25:04;2.40;99.90
52889;DHT22;41413;52.770;6.892;2022-11-20T14:27:37;2.40;99.90
52889;DHT22;41413;52.770;6.892;2022-11-20T14:30:05;2.40;99.90
52889;DHT22;41413;52.770;6.892;2022-11-20T14:32:34;2.40;99.90
52889;DHT22;41413;52.770;6.892;2022-11-20T14:35:08;2.40;99.90
52889;DHT22;41413;52.770;6.892;2022-11-20T14:37:38;2.40;99.90
52889;DHT22;41413;52.770;6.892;2022-11-20T14:42:49;2.30;99.90
52889;DHT22;41413;52.770;6.892;2022-11-20T14:45:16;2.30;99.90
52889;DHT22;41413;52.770;6.892;2022-11-20T14:47:44;2.30;99.90
52889;DHT22;41413;52.770;6.892;2022-11-20T14:52:58;2.20;99.90
52889;DHT22;41413;52.770;6.892;2022-11-20T14:55:34;2.20;99.90
52889;DHT22;41413;52.770;6.892;2022-11-20T14:58:06;2.20;99.90
52889;DHT22;41413;52.770;6.892;2022-11-20T15:00:34;2.10;99.90
52889;DHT22;41413;52.770;6.892;2022-11-20T15:03:01;2.10;99.90
52889;DHT22;41413;52.770;6.892;2022-11-20T15:05:48;2.00;99.90
52889;DHT22;41413;52.770;6.892;2022-11-20T15:08:16;2.00;99.90
52889;DHT22;41413;52.770;6.892;2022-11-20T15:10:48;2.00;99.90
52889;DHT22;41413;52.770;6.892;2022-11-20T15:13:24;2.00;99.90
52889;DHT22;41413;52.770;6.892;2022-11-20T15:15:54;2.10;99.90
52889;DHT22;41413;52.770;6.892;2022-11-20T15:18:38;2.10;99.90
52889;DHT22;41413;52.770;6.892;2022-11-20T15:21:16;2.00;99.90
52889;DHT22;41413;52.770;6.892;2022-11-20T15:23:43;2.10;99.90
52889;DHT22;41413;52.770;6.892;2022-11-20T15:26:12;2.10;99.90
52889;DHT22;41413;52.770;6.892;2022-11-20T15:28:46;2.00;99.90
52889;DHT22;41413;52.770;6.892;2022-11-20T15:31:16;2.00;99.90
52889;DHT22;41413;52.770;6.892;2022-11-20T15:33:43;2.00;99.90
52889;DHT22;41413;52.770;6.892;2022-11-20T15:36:10;2.00;99.90
52889;DHT22;41413;52.770;6.892;2022-11-20T15:38:37;2.00;99.90
52889;DHT22;41413;52.770;6.892;2022-11-20T15:41:04;2.00;99.90
52889;DHT22;41413;52.770;6.892;2022-11-20T15:43:31;2.00;99.90
52889;DHT22;41413;52.770;6.892;2022-11-20T15:46:03;2.00;99.90
52889;DHT22;41413;52.770;6.892;2022-11-20T15:48:39;2.00;99.90
52889;DHT22;41413;52.770;6.892;2022-11-20T15:51:26;1.90;99.90
52889;DHT22;41413;52.770;6.892;2022-11-20T15:53:55;1.80;99.90
52889;DHT22;41413;52.770;6.892;2022-11-20T15:56:22;1.90;99.90
52889;DHT22;41413;52.770;6.892;2022-11-20T15:58:48;1.90;99.90
52889;DHT22;41413;52.770;6.892;2022-11-20T16:01:17;1.80;99.90
52889;DHT22;41413;52.770;6.892;2022-11-20T16:03:45;1.80;99.90
52889;DHT22;41413;52.770;6.892;2022-11-20T16:06:12;1.90;99.90
52889;DHT22;41413;52.770;6.892;2022-11-20T16:08:39;1.80;99.90
52889;DHT22;41413;52.770;6.892;2022-11-20T16:11:05;1.70;99.90
52889;DHT22;41413;52.770;6.892;2022-11-20T16:13:32;1.70;99.90
52889;DHT22;41413;52.770;6.892;2022-11-20T16:16:38;1.70;99.90
52889;DHT22;41413;52.770;6.892;2022-11-20T16:19:10;1.70;99.90
52889;DHT22;41413;52.770;6.892;2022-11-20T16:21:38;1.70;99.90
52889;DHT22;41413;52.770;6.892;2022-11-20T16:24:06;1.60;99.90
52889;DHT22;41413;52.770;6.892;2022-11-20T16:26:35;1.70;99.90
52889;DHT22;41413;52.770;6.892;2022-11-20T16:29:03;1.70;99.90
52889;DHT22;41413;52.770;6.892;2022-11-20T16:31:31;1.60;99.90
52889;DHT22;41413;52.770;6.892;2022-11-20T16:34:00;1.60;99.90
52889;DHT22;41413;52.770;6.892;2022-11-20T16:36:32;1.60;99.90
52889;DHT22;41413;52.770;6.892;2022-11-20T16:39:01;1.70;99.90
52889;DHT22;41413;52.770;6.892;2022-11-20T16:41:31;1.60;99.90
52889;DHT22;41413;52.770;6.892;2022-11-20T16:44:00;1.60;99.90
52889;DHT22;41413;52.770;6.892;2022-11-20T16:46:29;1.60;99.90
52889;DHT22;41413;52.770;6.892;2022-11-20T16:51:25;1.60;99.90
52889;DHT22;41413;52.770;6.892;2022-11-20T16:53:52;1.50;99.90
52889;DHT22;41413;52.770;6.892;2022-11-20T16:56:23;1.50;99.90
52889;DHT22;41413;52.770;6.892;2022-11-20T16:58:52;1.50;99.90
52889;DHT22;41413;52.770;6.892;2022-11-20T17:01:20;1.50;99.90
52889;DHT22;41413;52.770;6.892;2022-11-20T17:03:57;1.40;99.90
52889;DHT22;41413;52.770;6.892;2022-11-20T17:06:27;1.50;99.90
52889;DHT22;41413;52.770;6.892;2022-11-20T17:08:54;1.50;99.90
52889;DHT22;41413;52.770;6.892;2022-11-20T17:11:22;1.50;99.90
52889;DHT22;41413;52.770;6.892;2022-11-20T17:13:48;1.50;99.90
52889;DHT22;41413;52.770;6.892;2022-11-20T17:16:20;1.50;99.90
52889;DHT22;41413;52.770;6.892;2022-11-20T17:18:47;1.50;99.90
52889;DHT22;41413;52.770;6.892;2022-11-20T17:21:18;1.50;99.90
52889;DHT22;41413;52.770;6.892;2022-11-20T17:23:45;1.50;99.90
52889;DHT22;41413;52.770;6.892;2022-11-20T17:26:15;1.60;99.90
52889;DHT22;41413;52.770;6.892;2022-11-20T17:28:52;1.50;99.90
52889;DHT22;41413;52.770;6.892;2022-11-20T17:31:19;1.50;99.90
52889;DHT22;41413;52.770;6.892;2022-11-20T17:33:46;1.50;99.90
52889;DHT22;41413;52.770;6.892;2022-11-20T17:36:15;1.50;99.90
52889;DHT22;41413;52.770;6.892;2022-11-20T17:38:42;1.50;99.90